Time;durP1;ratioP1;P1;durP2;ratioP2;P2;SDS_P1;SDS_P2;PMS_P1;PMS_P2;Temp;Humidity;BMP_temperature;BMP_pressure;BME280_temperature;BME280_humidity;BME280_pressure;Samples;Min_cycle;Max_cycle;Signal;HPM_P1;HPM_P2
2023/02/14 00:01:48;;;;;;;;;24.67;18.33;;;;;;;;5051917;28;8895;-68
2023/02/14 00:04:13;;;;;;;;;21.33;18.33;;;;;;;;5051648;28;8799;-67
2023/02/14 00:06:39;;;;;;;;;27.33;22.00;;;;;;;;5051767;28;8930;-68
2023/02/14 00:09:05;;;;;;;;;25.00;23.67;;;;;;;;5050398;28;8957;-68
2023/02/14 00:11:30;;;;;;;;;30.67;25.67;;;;;;;;5051859;28;8865;-68
2023/02/14 00:16:40;;;;;;;;;23.33;15.67;;;;;;;;5051400;28;8818;-68
2023/02/14 00:19:05;;;;;;;;;27.67;20.00;;;;;;;;5052132;28;8871;-69
2023/02/14 00:21:32;;;;;;;;;19.00;19.00;;;;;;;;5051101;28;8830;-68
2023/02/14 00:23:57;;;;;;;;;25.00;19.00;;;;;;;;5051786;28;8929;-69
2023/02/14 00:26:22;;;;;;;;;13.67;12.67;;;;;;;;5051569;28;8830;-69
2023/02/14 00:28:47;;;;;;;;;20.67;18.00;;;;;;;;5051376;28;8807;-68
2023/02/14 00:31:13;;;;;;;;;17.33;15.33;;;;;;;;5051475;28;8811;-68
2023/02/14 00:33:38;;;;;;;;;22.67;21.00;;;;;;;;5051214;28;8828;-68
2023/02/14 00:36:05;;;;;;;;;19.33;18.33;;;;;;;;5051279;28;8802;-68
2023/02/14 00:38:31;;;;;;;;;22.00;21.00;;;;;;;;5049757;28;8853;-68
2023/02/14 00:40:56;;;;;;;;;20.00;14.33;;;;;;;;5050753;28;8810;-68
2023/02/14 00:43:21;;;;;;;;;18.67;18.67;;;;;;;;5049778;28;8818;-68
2023/02/14 00:45:46;;;;;;;;;24.33;18.33;;;;;;;;5050733;28;8826;-68
2023/02/14 00:48:12;;;;;;;;;18.00;16.67;;;;;;;;5051029;28;8870;-68
2023/02/14 00:50:37;;;;;;;;;21.33;18.00;;;;;;;;5050944;28;8802;-68
2023/02/14 00:53:02;;;;;;;;;19.00;18.00;;;;;;;;5050893;28;8814;-69
2023/02/14 00:55:27;;;;;;;;;18.67;16.00;;;;;;;;5052572;28;8831;-68
2023/02/14 00:57:53;;;;;;;;;19.00;16.00;;;;;;;;5051207;28;9529;-68
2023/02/14 01:00:18;;;;;;;;;20.33;19.00;;;;;;;;5050765;28;8838;-68
2023/02/14 01:02:43;;;;;;;;;27.67;16.00;;;;;;;;5050631;28;8803;-68
2023/02/14 01:05:09;;;;;;;;;22.67;21.00;;;;;;;;5050253;28;8791;-68
2023/02/14 01:07:34;;;;;;;;;22.67;16.00;;;;;;;;5050643;28;8829;-67
2023/02/14 01:09:59;;;;;;;;;19.00;16.00;;;;;;;;5050737;28;8802;-67
2023/02/14 01:12:24;;;;;;;;;20.33;15.00;;;;;;;;5050561;28;8783;-68
2023/02/14 01:14:50;;;;;;;;;24.00;20.33;;;;;;;;5050593;28;8799;-68
2023/02/14 01:17:15;;;;;;;;;16.67;16.67;;;;;;;;5050816;28;8815;-70
2023/02/14 01:19:41;;;;;;;;;19.00;19.00;;;;;;;;5050278;28;8839;-71
2023/02/14 01:22:06;;;;;;;;;22.67;18.67;;;;;;;;5050431;28;8795;-69
2023/02/14 01:24:32;;;;;;;;;22.00;18.00;;;;;;;;5050209;28;8806;-69
2023/02/14 01:26:57;;;;;;;;;19.67;16.67;;;;;;;;5050021;28;8819;-69
2023/02/14 01:29:22;;;;;;;;;14.33;14.33;;;;;;;;5050269;28;8881;-67
2023/02/14 01:31:48;;;;;;;;;7.00;4.00;;;;;;;;5050017;28;8857;-69
2023/02/14 01:34:13;;;;;;;;;15.00;15.00;;;;;;;;5050291;28;8847;-68
2023/02/14 01:36:38;;;;;;;;;17.67;16.67;;;;;;;;5049971;28;8803;-69
2023/02/14 01:39:06;;;;;;;;;16.00;13.00;;;;;;;;5049776;28;8803;-69
2023/02/14 01:41:32;;;;;;;;;16.33;13.67;;;;;;;;5049819;28;8988;-68
2023/02/14 01:43:59;;;;;;;;;16.67;13.67;;;;;;;;5049120;28;8782;-68
2023/02/14 01:46:25;;;;;;;;;19.67;15.00;;;;;;;;5049375;28;8791;-69
2023/02/14 01:48:53;;;;;;;;;14.33;13.67;;;;;;;;5049537;28;8779;-69
2023/02/14 01:51:18;;;;;;;;;13.67;12.67;;;;;;;;5049626;28;8811;-68
2023/02/14 01:53:44;;;;;;;;;12.33;12.33;;;;;;;;5049766;28;8822;-68
2023/02/14 01:56:12;;;;;;;;;22.00;18.00;;;;;;;;5049233;28;8829;-68
2023/02/14 01:58:40;;;;;;;;;16.00;13.00;;;;;;;;5049459;28;9576;-69
2023/02/14 02:01:05;;;;;;;;;13.67;13.67;;;;;;;;5049465;28;8844;-69
2023/02/14 02:03:36;;;;;;;;;16.00;15.00;;;;;;;;5049637;28;8791;-69
2023/02/14 02:06:21;;;;;;;;;16.67;15.00;;;;;;;;5049500;28;8810;-69
2023/02/14 02:09:05;;;;;;;;;15.00;12.33;;;;;;;;5049555;28;8790;-69
2023/02/14 02:11:30;;;;;;;;;15.00;12.33;;;;;;;;5049346;28;8794;-69
2023/02/14 02:13:55;;;;;;;;;10.00;10.00;;;;;;;;5049518;28;8812;-68
2023/02/14 02:16:31;;;;;;;;;18.00;15.67;;;;;;;;5049441;28;8823;-68
2023/02/14 02:19:07;;;;;;;;;13.00;9.33;;;;;;;;5049896;28;8790;-68
2023/02/14 02:21:51;;;;;;;;;20.33;15.67;;;;;;;;5049296;28;8823;-69
2023/02/14 02:24:16;;;;;;;;;28.00;16.00;;;;;;;;5049433;28;8933;-69
2023/02/14 02:26:47;;;;;;;;;15.67;12.33;;;;;;;;5049353;28;8868;-69
2023/02/14 02:29:31;;;;;;;;;15.00;13.00;;;;;;;;5049551;28;8829;-69
2023/02/14 02:31:59;;;;;;;;;18.00;15.00;;;;;;;;5049518;28;8794;-69
2023/02/14 02:34:42;;;;;;;;;12.00;10.00;;;;;;;;5049378;28;8803;-69
2023/02/14 02:37:26;;;;;;;;;21.00;15.00;;;;;;;;5064874;28;9522;-68
2023/02/14 02:39:57;;;;;;;;;17.00;15.00;;;;;;;;5049730;28;8815;-69
2023/02/14 02:42:25;;;;;;;;;18.33;14.67;;;;;;;;5049392;28;8791;-69
2023/02/14 02:44:54;;;;;;;;;19.67;16.67;;;;;;;;5049258;28;8814;-68
2023/02/14 02:47:37;;;;;;;;;15.00;15.00;;;;;;;;5049381;28;8961;-67
2023/02/14 02:53:05;;;;;;;;;23.00;16.67;;;;;;;;5038051;28;8783;-69
2023/02/14 02:58:42;;;;;;;;;16.00;15.00;;;;;;;;5029113;28;8801;-69
2023/02/14 03:01:12;;;;;;;;;22.67;18.67;;;;;;;;5028809;28;8849;-69
2023/02/14 03:06:22;;;;;;;;;18.33;16.67;;;;;;;;5026533;28;8805;-69
2023/02/14 03:08:47;;;;;;;;;15.00;15.00;;;;;;;;5035554;28;8833;-68
2023/02/14 03:11:13;;;;;;;;;21.33;17.33;;;;;;;;5033062;28;8937;-69
2023/02/14 03:13:38;;;;;;;;;17.50;13.50;;;;;;;;5033092;28;8802;-68
2023/02/14 03:16:04;;;;;;;;;19.67;15.00;;;;;;;;5032826;28;8882;-69
2023/02/14 03:21:22;;;;;;;;;17.00;15.50;;;;;;;;5032775;28;8837;-69
2023/02/14 03:23:57;;;;;;;;;19.00;12.33;;;;;;;;5033043;28;8940;-68
2023/02/14 03:26:34;;;;;;;;;16.50;15.00;;;;;;;;5041250;28;8823;-69
2023/02/14 03:29:08;;;;;;;;;18.00;15.00;;;;;;;;5051485;28;8850;-70
2023/02/14 03:31:43;;;;;;;;;15.75;15.75;;;;;;;;5052664;28;8921;-69
2023/02/14 03:34:11;;;;;;;;;14.75;12.50;;;;;;;;5052655;28;8827;-69
2023/02/14 03:36:40;;;;;;;;;18.00;15.00;;;;;;;;5052317;28;8794;-69
2023/02/14 03:39:22;;;;;;;;;20.50;18.75;;;;;;;;5052810;28;8833;-68
2023/02/14 03:41:52;;;;;;;;;19.00;15.00;;;;;;;;5052077;28;8888;-68
2023/02/14 03:44:19;;;;;;;;;15.50;12.00;;;;;;;;5052458;28;8783;-70
2023/02/14 03:46:48;;;;;;;;;17.67;14.00;;;;;;;;5052062;28;8905;-70
2023/02/14 03:49:16;;;;;;;;;10.00;10.00;;;;;;;;5051956;28;9560;-69
2023/02/14 03:51:43;;;;;;;;;13.00;13.00;;;;;;;;5051960;28;8802;-69
2023/02/14 03:54:10;;;;;;;;;13.00;12.33;;;;;;;;5051973;28;8802;-70
2023/02/14 03:56:38;;;;;;;;;14.33;13.00;;;;;;;;5050551;28;8997;-69
2023/02/14 03:59:19;;;;;;;;;12.33;12.33;;;;;;;;5052232;28;9671;-70
2023/02/14 04:01:50;;;;;;;;;12.67;10.00;;;;;;;;5050593;28;9559;-69
2023/02/14 04:04:18;;;;;;;;;10.00;10.00;;;;;;;;5052045;28;8790;-70
2023/02/14 04:06:43;;;;;;;;;11.33;10.00;;;;;;;;5051861;28;8823;-70
2023/02/14 04:09:09;;;;;;;;;15.00;12.67;;;;;;;;5051729;28;8803;-69
2023/02/14 04:11:34;;;;;;;;;16.67;15.00;;;;;;;;5051799;28;8814;-69
2023/02/14 04:14:00;;;;;;;;;18.33;15.67;;;;;;;;5051841;28;8933;-70
2023/02/14 04:16:25;;;;;;;;;13.00;11.33;;;;;;;;5051504;28;8822;-70
2023/02/14 04:21:34;;;;;;;;;15.33;13.67;;;;;;;;5051281;28;8831;-69
2023/02/14 04:24:00;;;;;;;;;16.67;15.00;;;;;;;;5051231;28;8896;-70
2023/02/14 04:26:25;;;;;;;;;12.00;12.00;;;;;;;;5051256;28;8838;-70
2023/02/14 04:28:50;;;;;;;;;18.00;12.00;;;;;;;;5051081;28;8807;-69
2023/02/14 04:31:16;;;;;;;;;13.00;13.00;;;;;;;;5051148;28;8783;-70
2023/02/14 04:33:41;;;;;;;;;15.33;11.67;;;;;;;;5050099;28;8811;-70
2023/02/14 04:36:06;;;;;;;;;19.50;16.00;;;;;;;;5049774;28;8822;-70
2023/02/14 04:38:32;;;;;;;;;13.33;11.33;;;;;;;;5051243;28;8822;-70
2023/02/14 04:40:57;;;;;;;;;19.50;16.00;;;;;;;;5050854;28;8827;-70
2023/02/14 04:43:22;;;;;;;;;12.00;9.00;;;;;;;;5051064;28;8787;-70
2023/02/14 04:45:48;;;;;;;;;13.75;11.25;;;;;;;;5049725;28;8799;-70
2023/02/14 04:48:13;;;;;;;;;14.50;12.25;;;;;;;;5050881;28;9591;-70
2023/02/14 04:50:38;;;;;;;;;12.00;11.50;;;;;;;;5051015;28;8818;-69
2023/02/14 04:53:03;;;;;;;;;12.00;8.33;;;;;;;;5051060;28;8811;-70
2023/02/14 04:55:29;;;;;;;;;17.25;13.75;;;;;;;;5050749;28;8791;-69
2023/02/14 04:57:54;;;;;;;;;21.25;13.50;;;;;;;;5050756;28;8795;-68
2023/02/14 05:00:20;;;;;;;;;15.00;12.25;;;;;;;;5050837;28;8819;-69
2023/02/14 05:02:45;;;;;;;;;12.00;12.00;;;;;;;;5050844;28;8857;-70
2023/02/14 05:05:10;;;;;;;;;11.25;10.25;;;;;;;;5050583;28;8869;-70
2023/02/14 05:07:35;;;;;;;;;12.50;11.50;;;;;;;;5050747;28;9672;-70
2023/02/14 05:10:01;;;;;;;;;13.00;12.00;;;;;;;;5050640;28;8794;-69
2023/02/14 05:12:26;;;;;;;;;13.50;12.75;;;;;;;;5049002;28;8830;-69
2023/02/14 05:14:51;;;;;;;;;12.50;9.00;;;;;;;;5050647;28;9544;-70
2023/02/14 05:17:17;;;;;;;;;10.50;9.25;;;;;;;;5051349;28;8884;-70
2023/02/14 05:19:42;;;;;;;;;15.50;13.00;;;;;;;;5050303;28;8826;-69
2023/02/14 05:22:07;;;;;;;;;18.00;18.00;;;;;;;;5051228;28;8810;-70
2023/02/14 05:24:32;;;;;;;;;10.00;7.00;;;;;;;;5050906;28;8802;-70
2023/02/14 05:26:58;;;;;;;;;16.00;9.75;;;;;;;;5050197;28;8908;-69
2023/02/14 05:29:23;;;;;;;;;19.00;15.50;;;;;;;;5049686;28;8809;-69
2023/02/14 05:31:48;;;;;;;;;15.75;15.75;;;;;;;;5050529;28;8876;-69
2023/02/14 05:34:13;;;;;;;;;19.00;11.00;;;;;;;;5050256;28;8829;-70
2023/02/14 05:36:39;;;;;;;;;15.00;12.25;;;;;;;;5050117;28;8799;-69
2023/02/14 05:39:04;;;;;;;;;13.75;10.00;;;;;;;;5050187;28;8987;-69
2023/02/14 05:41:29;;;;;;;;;21.75;18.75;;;;;;;;5049974;28;8846;-69
2023/02/14 05:43:55;;;;;;;;;17.00;15.00;;;;;;;;5049967;28;9413;-69
2023/02/14 05:46:20;;;;;;;;;14.50;14.50;;;;;;;;5050097;28;8819;-69
2023/02/14 05:48:45;;;;;;;;;16.75;13.50;;;;;;;;5050056;28;8809;-69
2023/02/14 05:51:11;;;;;;;;;18.75;14.00;;;;;;;;5049628;28;8814;-70
2023/02/14 05:53:36;;;;;;;;;14.50;13.50;;;;;;;;5049593;28;8863;-69
2023/02/14 05:56:02;;;;;;;;;11.50;11.50;;;;;;;;5048168;28;8892;-70
2023/02/14 05:58:27;;;;;;;;;22.00;18.25;;;;;;;;5049540;28;8813;-70
2023/02/14 06:00:52;;;;;;;;;18.25;16.00;;;;;;;;5049615;28;8818;-69
2023/02/14 06:03:18;;;;;;;;;17.50;14.50;;;;;;;;5049739;28;8801;-69
2023/02/14 06:05:43;;;;;;;;;15.50;12.50;;;;;;;;5049445;28;8803;-69
2023/02/14 06:08:08;;;;;;;;;17.50;14.00;;;;;;;;5049449;28;8845;-69
2023/02/14 06:10:33;;;;;;;;;14.50;12.00;;;;;;;;5049108;28;8811;-69
2023/02/14 06:12:59;;;;;;;;;12.00;9.50;;;;;;;;5049474;28;8810;-69
2023/02/14 06:15:24;;;;;;;;;16.75;14.00;;;;;;;;5049525;28;8797;-68
2023/02/14 06:17:51;;;;;;;;;9.25;6.75;;;;;;;;5050195;28;8779;-69
2023/02/14 06:20:16;;;;;;;;;20.50;18.75;;;;;;;;5049346;28;8846;-69
2023/02/14 06:22:42;;;;;;;;;23.25;18.75;;;;;;;;5049579;28;8791;-72
2023/02/14 06:25:07;;;;;;;;;20.50;18.75;;;;;;;;5049557;28;8806;-71
2023/02/14 06:27:32;;;;;;;;;15.50;15.50;;;;;;;;5049466;28;8799;-71
2023/02/14 06:29:58;;;;;;;;;21.75;19.00;;;;;;;;5049535;28;9607;-71
2023/02/14 06:32:23;;;;;;;;;22.00;18.50;;;;;;;;5049343;28;8799;-71
2023/02/14 06:34:48;;;;;;;;;21.50;18.75;;;;;;;;5049313;28;8957;-70
2023/02/14 06:37:13;;;;;;;;;20.50;20.50;;;;;;;;5048830;28;9048;-70
2023/02/14 06:39:39;;;;;;;;;24.25;18.00;;;;;;;;5049005;28;8872;-71
2023/02/14 06:42:04;;;;;;;;;21.75;15.50;;;;;;;;5050242;28;8799;-71
2023/02/14 06:44:29;;;;;;;;;19.00;18.25;;;;;;;;5049597;28;8819;-70
2023/02/14 06:46:54;;;;;;;;;25.00;18.50;;;;;;;;5053177;28;8910;-68
2023/02/14 06:49:20;;;;;;;;;21.25;17.50;;;;;;;;5053308;28;8806;-68
2023/02/14 06:51:45;;;;;;;;;26.25;24.50;;;;;;;;5052917;28;8818;-68
2023/02/14 06:54:10;;;;;;;;;27.25;18.25;;;;;;;;5052663;28;8818;-66
2023/02/14 06:56:36;;;;;;;;;24.75;22.25;;;;;;;;5052895;28;8814;-70
2023/02/14 06:59:01;;;;;;;;;28.00;26.75;;;;;;;;5052983;28;8802;-70
2023/02/14 07:01:26;;;;;;;;;25.25;23.00;;;;;;;;5052755;28;8928;-68
2023/02/14 07:03:51;;;;;;;;;25.00;21.50;;;;;;;;5053339;28;8795;-70
2023/02/14 07:06:17;;;;;;;;;27.75;23.50;;;;;;;;5048471;28;8925;-71
2023/02/14 07:08:42;;;;;;;;;28.25;24.00;;;;;;;;5044521;28;8846;-70
2023/02/14 07:11:07;;;;;;;;;33.50;27.50;;;;;;;;5052507;28;8803;-70
2023/02/14 07:13:33;;;;;;;;;26.00;21.75;;;;;;;;5052436;28;8791;-70
2023/02/14 07:15:58;;;;;;;;;24.50;22.50;;;;;;;;5052446;28;8831;-71
2023/02/14 07:18:23;;;;;;;;;27.50;24.00;;;;;;;;5052373;28;8893;-69
2023/02/14 07:20:49;;;;;;;;;24.25;20.75;;;;;;;;5052053;28;8847;-70
2023/02/14 07:23:14;;;;;;;;;31.25;26.00;;;;;;;;5052455;28;8809;-70
2023/02/14 07:25:39;;;;;;;;;32.25;27.00;;;;;;;;5051965;28;8845;-71
2023/02/14 07:28:05;;;;;;;;;27.75;26.25;;;;;;;;5052115;28;8829;-71
2023/02/14 07:30:30;;;;;;;;;24.25;20.75;;;;;;;;5052400;28;8802;-70
2023/02/14 07:32:55;;;;;;;;;27.75;26.75;;;;;;;;5052334;28;8834;-72
2023/02/14 07:35:21;;;;;;;;;25.00;23.75;;;;;;;;5052101;28;8779;-70
2023/02/14 07:37:48;;;;;;;;;27.75;26.50;;;;;;;;5052592;28;9601;-73
2023/02/14 07:40:13;;;;;;;;;29.50;27.00;;;;;;;;5052454;28;8858;-71
2023/02/14 07:42:38;;;;;;;;;32.00;23.50;;;;;;;;5051766;28;8811;-72
2023/02/14 07:45:06;;;;;;;;;32.00;29.50;;;;;;;;5052481;28;8787;-69
2023/02/14 07:47:31;;;;;;;;;26.50;21.75;;;;;;;;5052335;28;8813;-69
2023/02/14 07:49:56;;;;;;;;;34.50;33.00;;;;;;;;5050094;28;8811;-72
2023/02/14 07:52:21;;;;;;;;;38.00;32.00;;;;;;;;5049123;28;8925;-71
2023/02/14 07:54:47;;;;;;;;;33.00;26.50;;;;;;;;5050505;28;9498;-70
2023/02/14 07:57:12;;;;;;;;;36.33;33.33;;;;;;;;5048601;28;8873;-72
2023/02/14 07:59:37;;;;;;;;;33.00;29.33;;;;;;;;5050348;28;8829;-72
2023/02/14 08:02:03;;;;;;;;;36.33;32.00;;;;;;;;5049935;28;8814;-71
2023/02/14 08:04:28;;;;;;;;;27.00;22.00;;;;;;;;5050022;28;8795;-69
2023/02/14 08:06:53;;;;;;;;;36.00;33.67;;;;;;;;5050708;28;8806;-67
2023/02/14 08:09:25;;;;;;;;;37.50;30.25;;;;;;;;5051557;28;8803;-65
2023/02/14 08:14:37;;;;;;;;;39.50;36.75;;;;;;;;5051429;28;12212;-65
2023/02/14 08:17:02;;;;;;;;;33.25;30.25;;;;;;;;5051240;28;11537;-66
2023/02/14 08:19:28;;;;;;;;;37.00;34.00;;;;;;;;5051233;28;8775;-64
2023/02/14 08:21:53;;;;;;;;;37.50;36.00;;;;;;;;5051252;28;8822;-71
2023/02/14 08:24:19;;;;;;;;;39.25;37.00;;;;;;;;5050480;28;8992;-71
2023/02/14 08:26:44;;;;;;;;;45.25;38.00;;;;;;;;5049799;28;8794;-73
2023/02/14 08:29:09;;;;;;;;;34.00;32.50;;;;;;;;5049181;28;8814;-72
2023/02/14 08:31:36;;;;;;;;;40.50;35.00;;;;;;;;5048960;28;8822;-74
2023/02/14 08:34:01;;;;;;;;;40.50;38.00;;;;;;;;5049107;28;8811;-70
2023/02/14 08:36:26;;;;;;;;;39.50;39.25;;;;;;;;5048512;28;11630;-70
2023/02/14 08:38:52;;;;;;;;;38.67;37.00;;;;;;;;5048735;28;8798;-72
2023/02/14 08:41:17;;;;;;;;;45.33;40.33;;;;;;;;5048289;28;8798;-69
2023/02/14 08:43:43;;;;;;;;;42.00;38.33;;;;;;;;5049982;28;8921;-70
2023/02/14 08:48:31;;;;;;;;;47.33;41.33;;;;;;;;4989475;28;13559;-73
2023/02/14 08:50:56;;;;;;;;;44.33;40.67;;;;;;;;4970615;28;8840;-73
2023/02/14 08:53:21;;;;;;;;;58.00;44.00;;;;;;;;4973471;28;8849;-71
2023/02/14 08:55:47;;;;;;;;;51.00;43.33;;;;;;;;4972311;28;8861;-72
2023/02/14 08:58:13;;;;;;;;;46.33;42.00;;;;;;;;4972758;28;8825;-73
2023/02/14 09:00:38;;;;;;;;;44.67;37.67;;;;;;;;4974047;28;8893;-73
2023/02/14 09:03:04;;;;;;;;;53.33;37.00;;;;;;;;4984091;28;8823;-72
2023/02/14 09:05:29;;;;;;;;;55.67;44.00;;;;;;;;4983641;28;8842;-70
2023/02/14 09:07:55;;;;;;;;;34.00;30.00;;;;;;;;4983933;28;8943;-70
2023/02/14 09:10:20;;;;;;;;;40.67;34.67;;;;;;;;4984020;28;8793;-69
2023/02/14 09:12:46;;;;;;;;;45.67;40.67;;;;;;;;4983945;28;8796;-69
2023/02/14 09:15:11;;;;;;;;;42.33;35.33;;;;;;;;4983829;28;9119;-70
2023/02/14 09:17:36;;;;;;;;;50.00;41.67;;;;;;;;4984310;28;8808;-70
2023/02/14 09:20:03;;;;;;;;;50.00;43.00;;;;;;;;4983940;28;8793;-72
2023/02/14 09:22:28;;;;;;;;;48.33;37.00;;;;;;;;4982235;28;8816;-70
2023/02/14 09:24:53;;;;;;;;;53.33;42.33;;;;;;;;4980242;28;8807;-72
2023/02/14 09:27:18;;;;;;;;;48.33;42.33;;;;;;;;4978527;28;8955;-71
2023/02/14 09:29:44;;;;;;;;;50.67;43.33;;;;;;;;4983462;28;8893;-72
2023/02/14 09:32:09;;;;;;;;;49.67;41.67;;;;;;;;4976454;28;8807;-73
2023/02/14 09:34:34;;;;;;;;;45.67;41.00;;;;;;;;4971709;28;8930;-72
2023/02/14 09:36:59;;;;;;;;;41.67;40.00;;;;;;;;4972878;28;8823;-72
2023/02/14 09:39:25;;;;;;;;;46.33;43.00;;;;;;;;4972590;28;8913;-72
2023/02/14 09:42:08;;;;;;;;;47.00;39.00;;;;;;;;4973186;28;8823;-70
2023/02/14 09:44:37;;;;;;;;;49.00;44.00;;;;;;;;4972918;28;8793;-73
2023/02/14 09:47:20;;;;;;;;;48.00;40.67;;;;;;;;4979626;28;8876;-72
2023/02/14 09:49:46;;;;;;;;;45.00;41.00;;;;;;;;4972664;28;8802;-72
2023/02/14 09:52:13;;;;;;;;;49.00;42.67;;;;;;;;4990670;28;8828;-71
2023/02/14 09:54:41;;;;;;;;;47.00;41.33;;;;;;;;4980529;28;8829;-70
2023/02/14 09:57:21;;;;;;;;;40.67;40.67;;;;;;;;4963493;28;8834;-71
2023/02/14 09:59:53;;;;;;;;;42.00;40.67;;;;;;;;4970055;28;8787;-72
2023/02/14 10:02:37;;;;;;;;;54.67;45.67;;;;;;;;4975667;28;8918;-72
2023/02/14 10:05:05;;;;;;;;;45.33;41.67;;;;;;;;4962597;28;8808;-72
2023/02/14 10:07:36;;;;;;;;;46.00;43.00;;;;;;;;4977617;28;8854;-72
2023/02/14 10:10:07;;;;;;;;;51.00;42.33;;;;;;;;4986218;28;9580;-70
2023/02/14 10:12:36;;;;;;;;;46.00;41.67;;;;;;;;4983821;28;8952;-70
2023/02/14 10:15:06;;;;;;;;;44.00;40.67;;;;;;;;4975067;28;8834;-69
2023/02/14 10:17:34;;;;;;;;;46.00;41.67;;;;;;;;4970423;28;9596;-72
2023/02/14 10:20:03;;;;;;;;;46.67;39.67;;;;;;;;4969806;28;8885;-69
2023/02/14 10:22:36;;;;;;;;;50.67;41.00;;;;;;;;4969722;28;8791;-71
2023/02/14 10:25:05;;;;;;;;;48.67;41.33;;;;;;;;4969484;28;8795;-70
2023/02/14 10:27:36;;;;;;;;;53.67;40.33;;;;;;;;4969343;28;8850;-70
2023/02/14 10:30:06;;;;;;;;;42.33;39.33;;;;;;;;4969687;28;8825;-70
2023/02/14 10:32:36;;;;;;;;;37.33;34.67;;;;;;;;4969777;28;8811;-69
2023/02/14 10:35:10;;;;;;;;;46.33;36.33;;;;;;;;4969386;28;8837;-69
2023/02/14 10:37:58;;;;;;;;;42.67;40.00;;;;;;;;4952136;28;8807;-69
2023/02/14 10:40:33;;;;;;;;;39.67;37.33;;;;;;;;4966384;28;8888;-70
2023/02/14 10:43:04;;;;;;;;;40.67;37.00;;;;;;;;4971609;28;8867;-72
2023/02/14 10:45:37;;;;;;;;;41.67;39.33;;;;;;;;4974918;28;8816;-73
2023/02/14 10:48:29;;;;;;;;;49.00;40.33;;;;;;;;4961394;28;8840;-71
2023/02/14 10:50:54;;;;;;;;;41.33;37.00;;;;;;;;4954098;28;8835;-73
2023/02/14 10:53:26;;;;;;;;;42.00;38.00;;;;;;;;4945177;28;8838;-73
2023/02/14 10:56:03;;;;;;;;;49.33;42.33;;;;;;;;4937243;28;8832;-72
2023/02/14 10:58:31;;;;;;;;;49.33;40.00;;;;;;;;4938640;28;8833;-73
2023/02/14 11:01:08;;;;;;;;;46.00;39.33;;;;;;;;4948092;28;8820;-72
2023/02/14 11:03:36;;;;;;;;;48.50;40.75;;;;;;;;4947345;28;8814;-73
2023/02/14 11:06:01;;;;;;;;;49.25;42.00;;;;;;;;4947334;28;11629;-73
2023/02/14 11:08:36;;;;;;;;;41.25;35.00;;;;;;;;4965529;28;12382;-73
2023/02/14 11:11:09;;;;;;;;;40.75;36.25;;;;;;;;4937246;28;8836;-72
2023/02/14 11:13:35;;;;;;;;;42.00;36.75;;;;;;;;4936731;28;11510;-73
2023/02/14 11:16:02;;;;;;;;;38.75;34.00;;;;;;;;4936138;28;11628;-72
2023/02/14 11:18:34;;;;;;;;;43.75;37.00;;;;;;;;4944074;28;11153;-73
2023/02/14 11:21:00;;;;;;;;;48.00;39.00;;;;;;;;4940681;28;10482;-71
2023/02/14 11:23:26;;;;;;;;;46.00;38.00;;;;;;;;4937609;28;10644;-73
2023/02/14 11:25:54;;;;;;;;;45.75;36.00;;;;;;;;4935212;28;10268;-73
2023/02/14 11:28:20;;;;;;;;;44.00;37.75;;;;;;;;4966576;28;8845;-73
2023/02/14 11:30:46;;;;;;;;;47.00;38.75;;;;;;;;4976572;28;10296;-72
2023/02/14 11:33:21;;;;;;;;;44.50;38.75;;;;;;;;4978633;28;10227;-72
2023/02/14 11:35:49;;;;;;;;;47.25;40.00;;;;;;;;4978114;28;11713;-72
2023/02/14 11:38:41;;;;;;;;;48.00;40.00;;;;;;;;4978793;28;10849;-72
2023/02/14 11:41:12;;;;;;;;;44.00;38.75;;;;;;;;4973080;28;11459;-72
2023/02/14 11:43:38;;;;;;;;;49.50;39.00;;;;;;;;4976878;28;11427;-72
2023/02/14 11:46:12;;;;;;;;;46.50;39.00;;;;;;;;4978381;28;12151;-72
2023/02/14 11:48:38;;;;;;;;;49.00;40.00;;;;;;;;4978711;28;11486;-72
2023/02/14 11:51:14;;;;;;;;;46.00;39.50;;;;;;;;4968099;28;11531;-73
2023/02/14 11:53:59;;;;;;;;;49.25;41.25;;;;;;;;4968176;28;11628;-72
2023/02/14 11:56:41;;;;;;;;;55.00;46.50;;;;;;;;4968202;28;11606;-71
2023/02/14 11:59:07;;;;;;;;;53.25;43.00;;;;;;;;4975856;28;11492;-73
2023/02/14 12:01:33;;;;;;;;;49.50;41.50;;;;;;;;4977700;28;11554;-73
2023/02/14 12:04:01;;;;;;;;;49.75;42.00;;;;;;;;4977612;28;8829;-73
2023/02/14 12:06:31;;;;;;;;;41.25;38.00;;;;;;;;4977836;28;12292;-72
2023/02/14 12:09:15;;;;;;;;;43.00;38.25;;;;;;;;4959613;28;11551;-72
2023/02/14 12:11:52;;;;;;;;;43.00;38.75;;;;;;;;4976360;28;11544;-72
2023/02/14 12:14:21;;;;;;;;;49.50;39.00;;;;;;;;4975747;28;11539;-72
2023/02/14 12:16:53;;;;;;;;;42.00;36.00;;;;;;;;4975974;28;11506;-72
2023/02/14 12:19:22;;;;;;;;;27.00;22.00;;;;;;;;4976901;28;11510;-72
2023/02/14 12:21:50;;;;;;;;;41.50;34.25;;;;;;;;4977528;28;11494;-72
2023/02/14 12:24:15;;;;;;;;;41.75;37.50;;;;;;;;4976828;28;11622;-72
2023/02/14 12:26:45;;;;;;;;;41.75;32.50;;;;;;;;4978495;28;11769;-73
2023/02/14 12:29:20;;;;;;;;;38.00;33.75;;;;;;;;4973677;28;8833;-72
2023/02/14 12:31:46;;;;;;;;;36.75;31.75;;;;;;;;4975907;28;11525;-73
2023/02/14 12:34:13;;;;;;;;;40.50;33.75;;;;;;;;4960352;28;11498;-72
2023/02/14 12:36:58;;;;;;;;;44.00;36.75;;;;;;;;4977264;28;11589;-73
2023/02/14 12:39:41;;;;;;;;;39.75;36.50;;;;;;;;4979538;28;11483;-72
2023/02/14 12:42:06;;;;;;;;;37.00;35.00;;;;;;;;4987005;28;11578;-73
2023/02/14 12:44:32;;;;;;;;;39.00;36.25;;;;;;;;4986984;28;11590;-72
2023/02/14 12:47:15;;;;;;;;;42.50;37.00;;;;;;;;4986955;28;9128;-70
2023/02/14 12:49:59;;;;;;;;;32.75;30.75;;;;;;;;4987532;28;9771;-69
2023/02/14 12:52:27;;;;;;;;;39.75;34.75;;;;;;;;4986942;28;11559;-73
2023/02/14 12:54:56;;;;;;;;;35.75;31.50;;;;;;;;4969475;28;11567;-76
2023/02/14 12:57:34;;;;;;;;;34.25;30.75;;;;;;;;4986970;28;11515;-76
2023/02/14 13:00:08;;;;;;;;;41.00;36.67;;;;;;;;4966929;28;11517;-74
2023/02/14 13:02:48;;;;;;;;;39.33;31.33;;;;;;;;4974350;28;11667;-74
2023/02/14 13:05:13;;;;;;;;;35.50;32.25;;;;;;;;4977439;28;12217;-74
2023/02/14 13:07:52;;;;;;;;;43.67;35.00;;;;;;;;4975319;28;11607;-73
2023/02/14 13:10:17;;;;;;;;;37.33;36.33;;;;;;;;4972977;28;8806;-74
2023/02/14 13:12:48;;;;;;;;;40.00;36.00;;;;;;;;4977489;28;11503;-74
2023/02/14 13:15:17;;;;;;;;;39.25;35.50;;;;;;;;4976798;28;8799;-75
2023/02/14 13:17:52;;;;;;;;;38.25;33.00;;;;;;;;4975713;28;11517;-74
2023/02/14 13:20:38;;;;;;;;;39.00;34.00;;;;;;;;4958011;28;11524;-74
2023/02/14 13:23:05;;;;;;;;;41.00;37.00;;;;;;;;4977195;28;11503;-74
2023/02/14 13:25:34;;;;;;;;;37.50;33.50;;;;;;;;4972004;28;11581;-70
2023/02/14 13:28:04;;;;;;;;;40.50;34.50;;;;;;;;4967198;28;11565;-72
2023/02/14 13:30:31;;;;;;;;;41.33;38.00;;;;;;;;4967064;28;11548;-69
2023/02/14 13:32:59;;;;;;;;;45.00;37.67;;;;;;;;4967068;28;11524;-69
2023/02/14 13:35:26;;;;;;;;;38.33;35.00;;;;;;;;4970377;28;11569;-71
2023/02/14 13:37:57;;;;;;;;;34.00;27.33;;;;;;;;4987966;28;11521;-70
2023/02/14 13:40:24;;;;;;;;;46.67;37.67;;;;;;;;4961079;28;12318;-70
2023/02/14 13:42:51;;;;;;;;;43.67;37.33;;;;;;;;4989595;28;11536;-69
2023/02/14 13:45:28;;;;;;;;;42.00;38.00;;;;;;;;4972608;28;11536;-70
2023/02/14 13:48:05;;;;;;;;;43.00;38.00;;;;;;;;4970069;28;11663;-70
2023/02/14 13:50:35;;;;;;;;;38.00;37.67;;;;;;;;4970201;28;11507;-69
2023/02/14 13:53:01;;;;;;;;;38.33;35.00;;;;;;;;4975081;28;11542;-70
2023/02/14 13:55:31;;;;;;;;;53.33;35.00;;;;;;;;4969759;28;11565;-75
2023/02/14 13:58:01;;;;;;;;;43.00;37.00;;;;;;;;4970327;28;8783;-70
2023/02/14 14:00:40;;;;;;;;;44.00;37.67;;;;;;;;4952615;28;12400;-71
2023/02/14 14:03:10;;;;;;;;;32.25;30.50;;;;;;;;4969650;28;11526;-70
2023/02/14 14:05:36;;;;;;;;;46.33;38.67;;;;;;;;4969764;28;11494;-71
2023/02/14 14:08:34;;;;;;;;;39.33;37.33;;;;;;;;4969568;28;11545;-71
2023/02/14 14:11:04;;;;;;;;;35.25;28.50;;;;;;;;4969887;28;12259;-71
2023/02/14 14:13:41;;;;;;;;;37.67;36.00;;;;;;;;4969605;28;11514;-71
2023/02/14 14:16:28;;;;;;;;;41.00;35.25;;;;;;;;4969682;28;11592;-71
2023/02/14 14:18:59;;;;;;;;;48.00;39.00;;;;;;;;4969849;28;11505;-71
2023/02/14 14:21:38;;;;;;;;;32.00;31.67;;;;;;;;4968881;28;12276;-71
2023/02/14 14:24:03;;;;;;;;;32.00;31.33;;;;;;;;4952138;28;11605;-71
2023/02/14 14:26:34;;;;;;;;;41.33;38.00;;;;;;;;4969263;28;11522;-71
2023/02/14 14:28:59;;;;;;;;;41.67;35.67;;;;;;;;4951943;28;8814;-72
2023/02/14 14:31:26;;;;;;;;;36.67;34.33;;;;;;;;4969251;28;11656;-71
2023/02/14 14:33:58;;;;;;;;;38.67;37.33;;;;;;;;4969794;28;8791;-71
2023/02/14 14:36:24;;;;;;;;;45.33;35.33;;;;;;;;4951985;28;11538;-71
2023/02/14 14:38:55;;;;;;;;;43.00;37.33;;;;;;;;4968990;28;11620;-71
2023/02/14 14:41:27;;;;;;;;;34.50;31.75;;;;;;;;4969186;28;8999;-71
2023/02/14 14:43:53;;;;;;;;;44.00;36.33;;;;;;;;4969249;28;11495;-71
2023/02/14 14:46:18;;;;;;;;;34.67;34.00;;;;;;;;4968870;28;11553;-71
2023/02/14 14:48:45;;;;;;;;;46.33;40.00;;;;;;;;4969239;28;8924;-71
2023/02/14 14:51:19;;;;;;;;;49.00;36.67;;;;;;;;4968984;28;8821;-70
2023/02/14 14:53:50;;;;;;;;;42.75;31.75;;;;;;;;4951481;28;12295;-72
2023/02/14 14:56:19;;;;;;;;;39.33;36.33;;;;;;;;4968732;28;11481;-71
2023/02/14 14:58:45;;;;;;;;;39.33;37.00;;;;;;;;4968964;28;11836;-72